Terminal Aerodrome Forecast
Issued by NWS Chicago, IL

Home | Current Version | Previous Version | Text Only | Print | Product List | Glossary On
Versions: 1 2 3 4 5 6 7 8 9 10 11 12 13 14 15 16 17 18 19 20 21
000
FTUS43 KLOT 241730
TAFRFD
TAF
KRFD 241730Z 2418/2518 20017G29KT P6SM FEW200
     FM250000 24014KT P6SM SCT080 BKN120
     FM250300 30014G23KT P6SM FEW250=

USA.gov is the U.S. government's official web portal to all federal, state and local government web resources and services.